createdAt,value
2018-06-02T00:01:59.993Z,34.77
2018-06-02T00:04:26.858Z,37.67
2018-06-02T00:06:53.735Z,37.23
2018-06-02T00:09:19.855Z,34.57
2018-06-02T00:11:47.155Z,36.97
2018-06-02T00:14:13.507Z,36.57
2018-06-02T00:16:39.908Z,37.40
2018-06-02T00:19:07.030Z,38.10
2018-06-02T00:21:33.346Z,36.80
2018-06-02T00:23:59.685Z,36.33
2018-06-02T00:26:26.021Z,33.10
2018-06-02T00:28:52.150Z,33.20
2018-06-02T00:31:18.778Z,33.33
2018-06-02T00:33:44.956Z,32.80
2018-06-02T00:36:11.059Z,34.80
2018-06-02T00:38:37.935Z,32.50
2018-06-02T00:41:04.795Z,33.67
2018-06-02T00:43:30.958Z,32.47
2018-06-02T00:45:57.858Z,34.70
2018-06-02T00:48:24.723Z,34.93
2018-06-02T00:50:50.934Z,36.10
2018-06-02T00:53:17.027Z,36.93
2018-06-02T00:55:43.136Z,36.50
2018-06-02T00:58:09.264Z,37.60
2018-06-02T01:00:35.396Z,37.50
2018-06-02T01:03:01.563Z,34.33
2018-06-02T01:05:28.440Z,36.67
2018-06-02T01:07:56.420Z,38.17
2018-06-02T01:10:22.551Z,37.20
2018-06-02T01:12:48.679Z,37.70
2018-06-02T01:15:15.534Z,36.27
2018-06-02T01:17:42.400Z,38.50
2018-06-02T01:20:09.342Z,39.67
2018-06-02T01:22:35.520Z,39.47
2018-06-02T01:25:01.683Z,40.60
2018-06-02T01:27:27.825Z,40.00
2018-06-02T01:29:53.980Z,39.07
2018-06-02T01:32:20.303Z,41.20
2018-06-02T01:34:46.879Z,40.23
2018-06-02T01:37:13.969Z,41.87
2018-06-02T01:39:41.040Z,42.83
2018-06-02T01:42:07.140Z,42.37
2018-06-02T01:44:33.256Z,42.70
2018-06-02T01:46:59.407Z,43.73
2018-06-02T01:49:25.539Z,41.57
2018-06-02T01:51:51.703Z,42.70
2018-06-02T01:54:18.567Z,44.67
2018-06-02T01:56:44.733Z,44.10
2018-06-02T01:59:10.884Z,45.27
2018-06-02T02:01:36.993Z,49.93
2018-06-02T02:04:03.137Z,49.23
2018-06-02T02:06:29.463Z,51.23
2018-06-02T02:08:56.415Z,50.97
2018-06-02T02:11:23.247Z,51.13
2018-06-02T02:13:49.365Z,49.73
2018-06-02T02:16:15.447Z,52.57
2018-06-02T02:18:42.283Z,50.40
2018-06-02T02:21:08.382Z,51.80
2018-06-02T02:23:34.594Z,53.57
2018-06-02T02:26:00.761Z,56.17
2018-06-02T02:28:26.917Z,51.20
2018-06-02T02:30:53.115Z,50.90
2018-06-02T02:33:20.183Z,51.67
2018-06-02T02:35:46.392Z,49.77
2018-06-02T02:38:12.486Z,46.07
2018-06-02T02:40:38.601Z,42.63
2018-06-02T02:43:04.691Z,40.50
2018-06-02T02:45:30.800Z,40.00
2018-06-02T02:47:56.911Z,39.37
2018-06-02T02:50:23.232Z,40.23
2018-06-02T02:52:49.545Z,39.37
2018-06-02T02:55:15.675Z,39.03
2018-06-02T02:57:41.981Z,38.17
2018-06-02T03:00:08.222Z,40.03
2018-06-02T03:02:34.508Z,42.47
2018-06-02T03:05:00.650Z,41.93
2018-06-02T03:07:26.983Z,44.80
2018-06-02T03:09:53.131Z,43.47
2018-06-02T03:12:19.447Z,48.70
2018-06-02T03:14:45.764Z,48.10
2018-06-02T03:17:14.178Z,47.73
2018-06-02T03:19:40.339Z,48.60
2018-06-02T03:22:06.443Z,49.00
2018-06-02T03:24:32.615Z,47.10
2018-06-02T03:26:58.722Z,46.90
2018-06-02T03:29:24.842Z,45.27
2018-06-02T03:31:51.683Z,42.90
2018-06-02T03:34:17.795Z,41.17
2018-06-02T03:36:44.732Z,39.07
2018-06-02T03:39:12.363Z,41.40
2018-06-02T03:41:38.473Z,39.33
2018-06-02T03:44:04.692Z,40.53
2018-06-02T03:46:31.580Z,38.90
2018-06-02T03:48:58.462Z,37.33
2018-06-02T03:51:25.308Z,38.20
2018-06-02T03:53:52.243Z,37.90
2018-06-02T03:56:18.598Z,35.83
2018-06-02T03:58:44.788Z,36.10
2018-06-02T04:01:10.907Z,35.10
2018-06-02T04:03:37.073Z,34.40
2018-06-02T04:06:03.238Z,34.00
2018-06-02T04:08:29.427Z,34.13
2018-06-02T04:10:55.884Z,35.20
2018-06-02T04:13:22.557Z,35.40
2018-06-02T04:15:49.705Z,34.80
2018-06-02T04:18:16.176Z,32.20
2018-06-02T04:20:42.520Z,33.23
2018-06-02T04:23:08.863Z,32.77
2018-06-02T04:25:35.199Z,32.47
2018-06-02T04:28:01.500Z,33.73
2018-06-02T04:30:27.827Z,34.20
2018-06-02T04:32:54.306Z,32.73
2018-06-02T04:35:20.680Z,31.67
2018-06-02T04:37:47.355Z,32.43
2018-06-02T04:40:14.419Z,31.80
2018-06-02T04:42:41.555Z,33.43
2018-06-02T04:45:07.729Z,35.10
2018-06-02T04:47:33.852Z,33.97
2018-06-02T04:50:00.208Z,34.23
2018-06-02T04:52:26.606Z,33.17
2018-06-02T04:54:52.939Z,33.97
2018-06-02T04:57:19.240Z,34.10
2018-06-02T04:59:45.562Z,34.90
2018-06-02T05:02:11.987Z,33.63
2018-06-02T05:04:38.307Z,35.40
2018-06-02T05:07:04.612Z,35.80
2018-06-02T05:09:31.655Z,32.50
2018-06-02T05:11:57.749Z,34.20
2018-06-02T05:14:24.047Z,34.03
2018-06-02T05:16:50.410Z,35.20
2018-06-02T05:19:16.526Z,35.00
2018-06-02T05:21:43.423Z,33.80
2018-06-02T05:24:09.935Z,34.57
2018-06-02T05:26:36.824Z,33.43
2018-06-02T05:29:03.083Z,31.10
2018-06-02T05:31:29.979Z,33.90
2018-06-02T05:33:56.815Z,31.47
2018-06-02T05:36:22.935Z,31.73
2018-06-02T05:38:49.043Z,34.00
2018-06-02T05:41:15.174Z,34.57
2018-06-02T05:43:42.024Z,33.53
2018-06-02T05:46:08.876Z,33.53
2018-06-02T05:48:35.739Z,32.73
2018-06-02T05:51:01.855Z,32.20
2018-06-02T05:53:28.030Z,31.63
2018-06-02T05:55:54.142Z,29.73
2018-06-02T05:58:20.327Z,31.43
2018-06-02T06:00:46.449Z,32.73
2018-06-02T06:03:12.563Z,30.60
2018-06-02T06:05:39.433Z,30.30
2018-06-02T06:08:05.558Z,30.20
2018-06-02T06:10:31.711Z,28.10
2018-06-02T06:12:57.987Z,30.87
2018-06-02T06:15:24.926Z,29.40
2018-06-02T06:17:51.062Z,29.03
2018-06-02T06:20:17.167Z,29.63
2018-06-02T06:22:43.297Z,28.30
2018-06-02T06:25:09.438Z,28.70
2018-06-02T06:27:35.568Z,29.30
2018-06-02T06:30:01.723Z,27.97
2018-06-02T06:32:28.706Z,28.03
2018-06-02T06:34:55.351Z,31.33
2018-06-02T06:37:22.206Z,32.57
2018-06-02T06:39:49.054Z,32.00
2018-06-02T06:42:15.214Z,32.67
2018-06-02T06:44:42.120Z,32.67
2018-06-02T06:47:08.974Z,33.60
2018-06-02T06:49:35.103Z,32.50
2018-06-02T06:52:01.206Z,35.87
2018-06-02T06:54:28.171Z,36.60
2018-06-02T06:56:54.319Z,36.67
2018-06-02T06:59:20.434Z,37.53
2018-06-02T07:01:47.289Z,39.40
2018-06-02T07:04:14.157Z,38.33
2018-06-02T07:06:40.440Z,40.00
2018-06-02T07:09:06.559Z,42.23
2018-06-02T07:11:32.655Z,40.77
2018-06-02T07:13:59.546Z,41.07
2018-06-02T07:16:26.390Z,42.00
2018-06-02T07:18:52.531Z,44.37
2018-06-02T07:21:18.640Z,42.07
2018-06-02T07:23:44.749Z,43.47
2018-06-02T07:26:10.908Z,45.07
2018-06-02T07:28:37.003Z,45.73
2018-06-02T07:31:03.100Z,43.70
2018-06-02T07:33:29.261Z,43.37
2018-06-02T07:35:56.095Z,44.20
2018-06-02T07:38:22.527Z,45.93
2018-06-02T07:40:48.711Z,43.00
2018-06-02T07:43:15.552Z,44.10
2018-06-02T07:45:41.664Z,42.40
2018-06-02T07:48:07.874Z,44.07
2018-06-02T07:50:33.974Z,45.10
2018-06-02T07:53:00.115Z,45.77
2018-06-02T07:55:27.032Z,46.47
2018-06-02T07:57:53.192Z,43.77
2018-06-02T08:00:19.357Z,44.73
2018-06-02T08:02:45.463Z,47.50
2018-06-02T08:05:12.300Z,44.00
2018-06-02T08:07:38.416Z,44.50
2018-06-02T08:10:04.523Z,46.40
2018-06-02T08:12:31.353Z,45.40
2018-06-02T08:14:57.436Z,44.80
2018-06-02T08:17:23.527Z,44.33
2018-06-02T08:19:49.626Z,42.60
2018-06-02T08:22:15.735Z,45.10
2018-06-02T08:24:42.571Z,43.07
2018-06-02T08:27:08.639Z,43.27
2018-06-02T08:29:34.872Z,44.07
2018-06-02T08:32:01.099Z,43.50
2018-06-02T08:34:27.439Z,43.80
2018-06-02T08:36:54.259Z,42.83
2018-06-02T08:39:20.342Z,42.40
2018-06-02T08:41:46.672Z,41.40
2018-06-02T08:44:12.966Z,40.87
2018-06-02T08:46:43.561Z,39.33
2018-06-02T08:49:10.714Z,40.63
2018-06-02T08:51:37.013Z,38.07
2018-06-02T08:54:03.298Z,38.00
2018-06-02T08:56:29.615Z,38.37
2018-06-02T08:58:55.974Z,36.20
2018-06-02T09:01:22.095Z,34.50
2018-06-02T09:03:50.803Z,33.27
2018-06-02T09:06:17.156Z,33.17
2018-06-02T09:08:43.258Z,32.67
2018-06-02T09:11:09.576Z,30.77
2018-06-02T09:13:36.011Z,28.37
2018-06-02T09:16:02.399Z,24.80
2018-06-02T09:18:28.707Z,22.13
2018-06-02T09:21:01.541Z,22.00
2018-06-02T09:23:27.885Z,20.60
2018-06-02T09:25:54.943Z,20.27
2018-06-02T09:28:21.273Z,19.07
2018-06-02T09:30:47.626Z,17.93
2018-06-02T09:33:14.169Z,17.80
2018-06-02T09:35:44.405Z,16.70
2018-06-02T09:38:10.711Z,18.40
2018-06-02T09:40:37.191Z,16.70
2018-06-02T09:43:03.505Z,16.50
2018-06-02T09:45:29.813Z,15.43
2018-06-02T09:47:57.038Z,18.20
2018-06-02T09:50:23.359Z,15.97
2018-06-02T09:52:49.771Z,16.83
2018-06-02T09:55:16.165Z,17.13
2018-06-02T09:57:42.590Z,16.40
2018-06-02T10:00:08.856Z,15.60
2018-06-02T10:02:36.623Z,16.57
2018-06-02T10:05:04.198Z,15.10
2018-06-02T10:07:30.357Z,13.93
2018-06-02T10:09:56.484Z,13.30
2018-06-02T10:12:22.674Z,12.23
2018-06-02T10:14:49.595Z,11.60
2018-06-02T10:17:15.765Z,10.37
2018-06-02T10:19:41.916Z,10.43
2018-06-02T10:22:08.040Z,10.13
2018-06-02T10:24:35.055Z,10.23
2018-06-02T10:27:01.224Z,9.73
2018-06-02T10:29:27.370Z,9.43
2018-06-02T10:31:54.227Z,9.13
2018-06-02T10:34:21.070Z,9.73
2018-06-02T10:36:47.172Z,9.00
2018-06-02T10:39:13.440Z,9.20
2018-06-02T10:41:39.602Z,8.47
2018-06-02T10:44:05.686Z,9.53
2018-06-02T10:46:32.107Z,9.90
2018-06-02T10:48:58.374Z,11.20
2018-06-02T10:51:24.483Z,9.87
2018-06-02T10:53:51.376Z,10.40
2018-06-02T10:56:17.525Z,9.73
2018-06-02T10:58:43.626Z,11.00
2018-06-02T11:01:09.751Z,12.10
2018-06-02T11:03:36.760Z,11.70
2018-06-02T11:06:02.954Z,11.90
2018-06-02T11:08:29.862Z,10.33
2018-06-02T11:10:56.770Z,11.43
2018-06-02T11:13:23.609Z,9.87
2018-06-02T11:15:49.729Z,10.60
2018-06-02T11:18:15.870Z,11.50
2018-06-02T11:20:42.327Z,10.77
2018-06-02T11:23:08.430Z,10.03
2018-06-02T11:25:34.590Z,10.43
2018-06-02T11:28:00.799Z,10.83
2018-06-02T11:30:26.904Z,10.50
2018-06-02T11:32:53.775Z,10.80
2018-06-02T11:35:19.940Z,12.87
2018-06-02T11:37:46.265Z,10.27
2018-06-02T11:40:12.576Z,10.37
2018-06-02T11:42:38.894Z,10.97
2018-06-02T11:45:05.223Z,10.77
2018-06-02T11:47:31.551Z,9.83
2018-06-02T11:49:57.895Z,9.50
2018-06-02T11:52:24.190Z,9.63
2018-06-02T11:54:50.507Z,8.70
2018-06-02T11:57:16.827Z,8.57
2018-06-02T11:59:43.186Z,8.20
2018-06-02T12:02:09.504Z,7.80
2018-06-02T12:04:35.911Z,8.67
2018-06-02T12:07:02.237Z,9.30
2018-06-02T12:09:28.548Z,7.93
2018-06-02T12:11:54.890Z,8.60
2018-06-02T12:14:21.197Z,8.57
2018-06-02T12:16:48.272Z,9.10
2018-06-02T12:19:14.571Z,10.47
2018-06-02T12:21:42.779Z,9.50
2018-06-02T12:24:08.915Z,8.67
2018-06-02T12:26:35.054Z,9.00
2018-06-02T12:29:01.374Z,8.70
2018-06-02T12:31:27.720Z,7.97
2018-06-02T12:33:54.052Z,7.90
2018-06-02T12:36:20.366Z,8.83
2018-06-02T12:38:47.615Z,8.40
2018-06-02T12:41:14.503Z,8.40
2018-06-02T12:43:41.566Z,8.70
2018-06-02T12:46:08.424Z,7.43
2018-06-02T12:48:35.611Z,7.37
2018-06-02T12:51:01.758Z,8.27
2018-06-02T12:53:27.852Z,8.10
2018-06-02T12:55:54.704Z,7.73
2018-06-02T12:58:21.642Z,7.63
2018-06-02T13:00:47.750Z,7.80
2018-06-02T13:03:13.998Z,8.27
2018-06-02T13:05:40.114Z,8.30
2018-06-02T13:08:06.206Z,7.13
2018-06-02T13:10:32.299Z,6.73
2018-06-02T13:12:58.839Z,7.60
2018-06-02T13:15:24.930Z,7.10
2018-06-02T13:17:51.031Z,8.00
2018-06-02T13:20:17.131Z,8.70
2018-06-02T13:22:43.992Z,7.57
2018-06-02T13:25:16.249Z,10.10
2018-06-02T13:27:44.097Z,9.63
2018-06-02T13:30:10.179Z,9.03
2018-06-02T13:32:36.308Z,8.83
2018-06-02T13:35:07.363Z,9.00
2018-06-02T13:37:34.232Z,7.27
2018-06-02T13:40:01.072Z,7.73
2018-06-02T13:42:27.955Z,7.43
2018-06-02T13:44:54.799Z,7.83
2018-06-02T13:47:21.643Z,6.93
2018-06-02T13:49:48.499Z,8.30
2018-06-02T13:52:14.635Z,8.77
2018-06-02T13:54:41.474Z,8.60
2018-06-02T13:57:07.582Z,6.57
2018-06-02T13:59:33.691Z,6.70
2018-06-02T14:01:59.793Z,6.97
2018-06-02T14:04:25.876Z,5.40
2018-06-02T14:06:51.956Z,5.97
2018-06-02T14:09:18.142Z,6.07
2018-06-02T14:11:44.226Z,5.40
2018-06-02T14:14:10.317Z,5.37
2018-06-02T14:16:36.436Z,4.90
2018-06-02T14:19:03.318Z,5.93
2018-06-02T14:21:29.417Z,6.00
2018-06-02T14:23:55.575Z,6.10
2018-06-02T14:26:22.496Z,6.80
2018-06-02T14:28:48.597Z,6.80
2018-06-02T14:31:14.695Z,6.27
2018-06-02T14:33:40.818Z,6.03
2018-06-02T14:36:06.904Z,5.80
2018-06-02T14:38:32.986Z,5.50
2018-06-02T14:40:59.103Z,5.37
2018-06-02T14:43:25.170Z,5.77
2018-06-02T14:45:51.250Z,5.83
2018-06-02T14:48:17.337Z,5.63
2018-06-02T14:50:43.463Z,6.30
2018-06-02T14:53:09.618Z,5.70
2018-06-02T14:55:35.811Z,5.70
2018-06-02T14:58:01.930Z,6.07
2018-06-02T15:00:28.012Z,6.13
2018-06-02T15:02:54.086Z,5.93
2018-06-02T15:05:20.231Z,6.20
2018-06-02T15:07:47.239Z,6.07
2018-06-02T15:10:13.378Z,6.17
2018-06-02T15:12:39.487Z,5.50
2018-06-02T15:15:05.611Z,7.03
2018-06-02T15:17:32.454Z,5.80
2018-06-02T15:19:58.570Z,6.10
2018-06-02T15:22:24.697Z,5.30
2018-06-02T15:24:50.836Z,5.23
2018-06-02T15:27:16.936Z,4.83
2018-06-02T15:29:43.138Z,5.33
2018-06-02T15:32:09.335Z,6.10
2018-06-02T15:34:35.702Z,6.23
2018-06-02T15:37:01.849Z,6.57
2018-06-02T15:39:27.950Z,6.27
2018-06-02T15:41:54.070Z,5.90
2018-06-02T15:44:20.179Z,5.40
2018-06-02T15:46:47.050Z,5.43
2018-06-02T15:49:13.899Z,5.70
2018-06-02T15:51:40.733Z,5.10
2018-06-02T15:54:06.901Z,5.40
2018-06-02T15:56:33.749Z,5.13
2018-06-02T15:59:00.640Z,5.57
2018-06-02T16:01:26.759Z,5.60
2018-06-02T16:03:52.947Z,4.53
2018-06-02T16:06:19.057Z,5.20
2018-06-02T16:08:48.332Z,5.27
2018-06-02T16:11:24.346Z,5.43
2018-06-02T16:13:52.433Z,4.97
2018-06-02T16:16:22.351Z,5.80
2018-06-02T16:18:49.942Z,5.37
2018-06-02T16:21:18.095Z,5.70
2018-06-02T16:23:44.944Z,4.80
2018-06-02T16:26:11.035Z,5.00
2018-06-02T16:28:37.154Z,5.00
2018-06-02T16:31:06.892Z,5.20
2018-06-02T16:33:36.233Z,4.33
2018-06-02T16:36:05.551Z,5.10
2018-06-02T16:38:31.711Z,4.20
2018-06-02T16:40:57.823Z,4.40
2018-06-02T16:43:23.998Z,4.43
2018-06-02T16:45:50.241Z,5.17
2018-06-02T16:48:16.539Z,5.50
2018-06-02T16:50:44.263Z,6.03
2018-06-02T16:53:10.504Z,5.77
2018-06-02T16:55:36.667Z,6.50
2018-06-02T16:58:02.755Z,6.07
2018-06-02T17:00:31.279Z,6.73
2018-06-02T17:02:57.386Z,6.83
2018-06-02T17:05:24.530Z,6.60
2018-06-02T17:07:51.395Z,6.83
2018-06-02T17:10:18.255Z,6.90
2018-06-02T17:12:45.112Z,6.50
2018-06-02T17:15:14.226Z,6.77
2018-06-02T17:17:41.241Z,7.57
2018-06-02T17:20:07.408Z,7.70
2018-06-02T17:22:34.207Z,7.80
2018-06-02T17:25:00.597Z,8.27
2018-06-02T17:27:26.735Z,7.97
2018-06-02T17:29:53.100Z,8.30
2018-06-02T17:32:19.307Z,7.50
2018-06-02T17:34:45.428Z,8.03
2018-06-02T17:37:11.539Z,7.53
2018-06-02T17:39:38.385Z,7.13
2018-06-02T17:42:05.311Z,7.10
2018-06-02T17:44:31.430Z,6.97
2018-06-02T17:46:57.568Z,7.20
2018-06-02T17:49:23.689Z,7.53
2018-06-02T17:51:50.015Z,8.17
2018-06-02T17:54:16.145Z,7.40
2018-06-02T17:56:51.600Z,8.47
2018-06-02T17:59:19.658Z,8.33
2018-06-02T18:01:46.244Z,8.40
2018-06-02T18:04:12.466Z,8.13
2018-06-02T18:06:39.671Z,7.77
2018-06-02T18:09:05.843Z,9.03
2018-06-02T18:11:31.941Z,8.60
2018-06-02T18:13:58.841Z,9.53
2018-06-02T18:16:28.896Z,8.70
2018-06-02T18:18:55.823Z,8.70
2018-06-02T18:21:22.776Z,8.30
2018-06-02T18:23:48.901Z,8.33
2018-06-02T18:26:15.067Z,8.63
2018-06-02T18:28:41.159Z,9.47
2018-06-02T18:31:07.274Z,9.33
2018-06-02T18:33:35.820Z,9.07
2018-06-02T18:36:01.988Z,8.60
2018-06-02T18:38:28.079Z,8.80
2018-06-02T18:40:54.176Z,8.40
2018-06-02T18:43:20.275Z,7.70
2018-06-02T18:45:47.124Z,7.10
2018-06-02T18:48:13.253Z,6.67
2018-06-02T18:50:39.372Z,5.90
2018-06-02T18:53:07.400Z,6.20
2018-06-02T18:55:33.504Z,7.03
2018-06-02T18:57:59.594Z,7.07
2018-06-02T19:00:25.672Z,6.90
2018-06-02T19:02:51.755Z,7.50
2018-06-02T19:05:18.591Z,6.70
2018-06-02T19:07:44.694Z,7.67
2018-06-02T19:10:10.888Z,6.93
2018-06-02T19:12:42.171Z,6.80
2018-06-02T19:15:08.459Z,6.70
2018-06-02T19:17:35.385Z,7.10
2018-06-02T19:20:01.777Z,7.40
2018-06-02T19:22:27.875Z,8.43
2018-06-02T19:24:54.204Z,6.53
2018-06-02T19:27:20.396Z,7.53
2018-06-02T19:29:47.341Z,7.00
2018-06-02T19:32:13.438Z,6.60
2018-06-02T19:34:41.601Z,7.20
2018-06-02T19:37:08.624Z,6.83
2018-06-02T19:39:34.720Z,7.10
2018-06-02T19:42:00.911Z,7.53
2018-06-02T19:44:27.024Z,8.20
2018-06-02T19:46:53.181Z,7.70
2018-06-02T19:49:19.306Z,8.27
2018-06-02T19:51:46.371Z,8.13
2018-06-02T19:54:12.628Z,7.30
2018-06-02T19:56:39.424Z,6.50
2018-06-02T19:59:05.595Z,6.70
2018-06-02T20:01:31.803Z,7.27
2018-06-02T20:03:58.980Z,6.10
2018-06-02T20:06:25.111Z,6.70
2018-06-02T20:08:57.553Z,6.23
2018-06-02T20:11:23.872Z,6.63
2018-06-02T20:13:50.186Z,6.60
2018-06-02T20:16:16.532Z,8.20
2018-06-02T20:18:43.696Z,8.43
2018-06-02T20:21:10.076Z,8.30
2018-06-02T20:23:41.639Z,7.80
2018-06-02T20:26:07.963Z,7.37
2018-06-02T20:28:34.431Z,6.67
2018-06-02T20:31:01.519Z,6.73
2018-06-02T20:33:27.828Z,7.37
2018-06-02T20:35:54.938Z,6.17
2018-06-02T20:38:21.332Z,6.00
2018-06-02T20:40:47.662Z,6.47
2018-06-02T20:43:13.997Z,7.13
2018-06-02T20:45:40.413Z,5.90
2018-06-02T20:48:06.806Z,6.50
2018-06-02T20:50:33.150Z,5.70
2018-06-02T20:52:59.461Z,6.70
2018-06-02T20:55:25.851Z,5.80
2018-06-02T20:57:52.288Z,5.87
2018-06-02T21:00:18.741Z,6.10
2018-06-02T21:02:45.823Z,5.20
2018-06-02T21:05:12.190Z,5.90
2018-06-02T21:07:38.532Z,5.60
2018-06-02T21:10:05.294Z,7.87
2018-06-02T21:12:31.665Z,8.90
2018-06-02T21:14:57.967Z,7.60
2018-06-02T21:17:24.282Z,6.60
2018-06-02T21:19:52.090Z,6.10
2018-06-02T21:22:18.399Z,6.13
2018-06-02T21:24:45.438Z,5.90
2018-06-02T21:27:11.780Z,5.97
2018-06-02T21:29:38.091Z,5.77
2018-06-02T21:32:04.414Z,5.67
2018-06-02T21:34:30.779Z,5.07
2018-06-02T21:36:57.528Z,6.00
2018-06-02T21:39:23.822Z,6.63
2018-06-02T21:41:50.175Z,6.70
2018-06-02T21:44:17.274Z,5.97
2018-06-02T21:46:43.559Z,7.30
2018-06-02T21:49:09.875Z,6.63
2018-06-02T21:51:36.156Z,5.93
2018-06-02T21:54:03.192Z,6.43
2018-06-02T21:56:29.631Z,6.63
2018-06-02T21:58:55.909Z,5.77
2018-06-02T22:01:23.135Z,5.40
2018-06-02T22:03:49.448Z,6.30
2018-06-02T22:06:16.219Z,5.40
2018-06-02T22:08:42.600Z,5.87
2018-06-02T22:11:08.899Z,5.77
2018-06-02T22:13:35.229Z,5.93
2018-06-02T22:16:04.050Z,6.20
2018-06-02T22:18:30.500Z,7.80
2018-06-02T22:23:47.882Z,6.50
2018-06-02T22:26:14.179Z,6.80
2018-06-02T22:28:41.501Z,7.20
2018-06-02T22:31:07.804Z,7.07
2018-06-02T22:33:34.902Z,7.37
2018-06-02T22:36:01.307Z,7.10
2018-06-02T22:38:27.610Z,7.30
2018-06-02T22:40:53.955Z,6.40
2018-06-02T22:43:21.032Z,7.50
2018-06-02T22:45:47.378Z,7.00
2018-06-02T22:48:13.691Z,7.13
2018-06-02T22:50:40.127Z,7.80
2018-06-02T22:53:06.435Z,7.70
2018-06-02T22:55:32.750Z,7.63
2018-06-02T22:57:59.038Z,7.73
2018-06-02T23:00:25.350Z,7.87
2018-06-02T23:02:51.782Z,7.80
2018-06-02T23:05:18.131Z,7.43
2018-06-02T23:07:44.566Z,7.00
2018-06-02T23:10:10.964Z,6.67
2018-06-02T23:12:37.568Z,6.80
2018-06-02T23:15:04.788Z,8.93
2018-06-02T23:17:31.092Z,7.47
2018-06-02T23:20:39.828Z,7.83
2018-06-02T23:23:07.131Z,8.30
2018-06-02T23:25:34.522Z,9.23
2018-06-02T23:28:01.781Z,8.57
2018-06-02T23:30:29.395Z,8.77
2018-06-02T23:32:56.805Z,9.50
2018-06-02T23:35:24.084Z,8.80
2018-06-02T23:37:51.542Z,9.67
2018-06-02T23:40:18.876Z,9.37
2018-06-02T23:42:46.147Z,9.07
2018-06-02T23:45:13.511Z,8.90
2018-06-02T23:47:40.933Z,9.53
2018-06-02T23:50:08.504Z,10.27
2018-06-02T23:52:35.897Z,10.37
2018-06-02T23:55:03.304Z,9.83
2018-06-02T23:57:30.628Z,10.57
2018-06-02T23:59:59.047Z,10.83
